createdAt,value
2018-09-21T00:01:32.658Z,10.96
2018-09-21T00:04:02.583Z,10.90
2018-09-21T00:06:31.545Z,10.87
2018-09-21T00:09:00.369Z,10.82
2018-09-21T00:11:29.249Z,10.80
2018-09-21T00:13:58.144Z,10.76
2018-09-21T00:16:26.821Z,10.73
2018-09-21T00:18:55.702Z,10.69
2018-09-21T00:21:24.495Z,10.64
2018-09-21T00:23:53.292Z,10.59
2018-09-21T00:26:22.243Z,10.58
2018-09-21T00:28:50.994Z,10.52
2018-09-21T00:31:19.728Z,10.51
2018-09-21T00:33:48.540Z,10.51
2018-09-21T00:36:17.263Z,10.51
2018-09-21T00:38:46.463Z,10.50
2018-09-21T00:41:15.106Z,10.49
2018-09-21T00:43:43.927Z,10.49
2018-09-21T00:46:12.714Z,10.52
2018-09-21T00:48:41.354Z,10.53
2018-09-21T00:51:11.293Z,10.54
2018-09-21T00:53:40.124Z,10.53
2018-09-21T00:56:09.070Z,10.48
2018-09-21T00:58:37.968Z,10.49
2018-09-21T01:01:06.750Z,10.48
2018-09-21T01:03:35.456Z,10.43
2018-09-21T01:06:04.163Z,10.42
2018-09-21T01:08:33.073Z,10.43
2018-09-21T01:11:01.856Z,10.44
2018-09-21T01:13:30.530Z,10.39
2018-09-21T01:15:59.402Z,10.43
2018-09-21T01:18:28.425Z,10.43
2018-09-21T01:20:57.115Z,10.41
2018-09-21T01:23:25.842Z,10.38
2018-09-21T01:25:54.548Z,10.38
2018-09-21T01:28:23.433Z,10.36
2018-09-21T01:30:52.367Z,10.35
2018-09-21T01:33:21.025Z,10.34
2018-09-21T01:35:49.750Z,10.27
2018-09-21T01:38:18.636Z,10.26
2018-09-21T01:40:47.459Z,10.26
2018-09-21T01:43:16.623Z,10.19
2018-09-21T01:45:45.480Z,10.14
2018-09-21T01:48:14.613Z,10.10
2018-09-21T01:50:43.353Z,10.05
2018-09-21T01:53:12.083Z,10.00
2018-09-21T01:55:41.041Z,9.94
2018-09-21T01:58:09.730Z,9.94
2018-09-21T02:00:38.615Z,9.89
2018-09-21T02:03:07.791Z,9.84
2018-09-21T02:05:36.666Z,9.86
2018-09-21T02:08:05.385Z,9.87
2018-09-21T02:10:34.339Z,9.83
2018-09-21T02:13:02.973Z,9.82
2018-09-21T02:15:31.812Z,9.73
2018-09-21T02:18:00.519Z,9.65
2018-09-21T02:20:29.200Z,9.56
2018-09-21T02:22:57.940Z,9.48
2018-09-21T02:25:26.601Z,9.36
2018-09-21T02:27:55.323Z,9.35
2018-09-21T02:30:23.948Z,9.30
2018-09-21T02:32:52.662Z,9.36
2018-09-21T02:35:21.510Z,9.33
2018-09-21T02:37:50.362Z,9.27
2018-09-21T02:40:19.015Z,9.19
2018-09-21T02:42:48.092Z,9.16
2018-09-21T02:45:16.795Z,9.11
2018-09-21T02:47:45.609Z,9.02
2018-09-21T02:50:14.273Z,8.94
2018-09-21T02:52:43.295Z,8.91
2018-09-21T02:55:11.999Z,8.89
2018-09-21T02:57:40.803Z,8.87
2018-09-21T03:00:10.041Z,8.77
2018-09-21T03:02:38.661Z,8.62
2018-09-21T03:05:07.890Z,8.53
2018-09-21T03:07:36.473Z,8.49
2018-09-21T03:10:05.397Z,8.50
2018-09-21T03:12:34.218Z,8.50
2018-09-21T03:15:02.860Z,8.49
2018-09-21T03:17:31.634Z,8.49
2018-09-21T03:20:00.488Z,8.44
2018-09-21T03:22:29.241Z,8.47
2018-09-21T03:24:58.000Z,8.46
2018-09-21T03:27:26.774Z,8.41
2018-09-21T03:29:55.346Z,8.40
2018-09-21T03:32:24.131Z,8.36
2018-09-21T03:34:52.900Z,8.37
2018-09-21T03:37:21.496Z,8.36
2018-09-21T03:39:50.275Z,8.34
2018-09-21T03:42:19.031Z,8.31
2018-09-21T03:44:47.751Z,8.30
2018-09-21T03:47:16.788Z,8.27
2018-09-21T03:49:45.519Z,8.20
2018-09-21T03:52:14.316Z,8.10
2018-09-21T03:54:43.060Z,7.91
2018-09-21T03:57:11.914Z,8.03
2018-09-21T03:59:40.808Z,7.93
2018-09-21T04:02:09.778Z,7.87
2018-09-21T04:04:41.513Z,7.77
2018-09-21T04:07:11.172Z,7.74
2018-09-21T04:09:40.030Z,7.71
2018-09-21T04:12:09.035Z,7.67
2018-09-21T04:14:37.700Z,7.61
2018-09-21T04:17:06.732Z,7.57
2018-09-21T04:19:35.501Z,7.63
2018-09-21T04:22:04.158Z,7.64
2018-09-21T04:24:32.796Z,7.69
2018-09-21T04:27:01.408Z,7.72
2018-09-21T04:29:30.146Z,7.76
2018-09-21T04:31:58.880Z,7.69
2018-09-21T04:34:27.724Z,7.67
2018-09-21T04:36:56.453Z,7.65
2018-09-21T04:39:25.206Z,7.67
2018-09-21T04:41:53.988Z,7.67
2018-09-21T04:44:22.690Z,7.65
2018-09-21T04:46:51.388Z,7.64
2018-09-21T04:49:20.170Z,7.62
2018-09-21T04:51:49.271Z,7.62
2018-09-21T04:54:18.047Z,7.62
2018-09-21T04:56:46.670Z,7.65
2018-09-21T04:59:15.665Z,7.63
2018-09-21T05:01:44.762Z,7.69
2018-09-21T05:04:14.493Z,7.78
2018-09-21T05:06:43.700Z,7.87
2018-09-21T05:09:12.672Z,7.96
2018-09-21T05:11:42.578Z,7.98
2018-09-21T05:14:11.840Z,8.01
2018-09-21T05:16:40.678Z,8.40
2018-09-21T05:19:10.043Z,8.52
2018-09-21T05:21:39.875Z,8.49
2018-09-21T05:24:09.381Z,8.66
2018-09-21T05:26:38.460Z,8.62
2018-09-21T05:29:08.493Z,8.68
2018-09-21T05:31:37.271Z,8.67
2018-09-21T05:34:06.311Z,8.89
2018-09-21T05:36:35.121Z,8.92
2018-09-21T05:39:04.005Z,8.85
2018-09-21T05:41:32.734Z,8.85
2018-09-21T05:44:01.304Z,8.83
2018-09-21T05:46:29.938Z,8.86
2018-09-21T05:48:58.559Z,8.87
2018-09-21T05:51:27.206Z,8.86
2018-09-21T05:53:55.965Z,9.11
2018-09-21T05:56:24.980Z,9.18
2018-09-21T05:58:53.730Z,9.21
2018-09-21T06:01:22.542Z,9.17
2018-09-21T06:03:51.294Z,9.28
2018-09-21T06:06:20.478Z,9.29
2018-09-21T06:08:49.156Z,9.38
2018-09-21T06:11:17.946Z,9.38
2018-09-21T06:13:46.807Z,9.34
2018-09-21T06:16:15.485Z,10.37
2018-09-21T06:18:44.492Z,10.43
2018-09-21T06:21:13.355Z,13.42
2018-09-21T06:23:42.027Z,16.61
2018-09-21T06:26:11.256Z,18.62
2018-09-21T06:28:40.146Z,19.38
2018-09-21T06:31:09.347Z,20.08
2018-09-21T06:33:38.448Z,19.86
2018-09-21T06:36:07.159Z,21.30
2018-09-21T06:38:36.031Z,22.14
2018-09-21T06:41:04.785Z,21.28
2018-09-21T06:43:33.573Z,21.38
2018-09-21T06:46:02.441Z,20.16
2018-09-21T06:48:31.177Z,20.12
2018-09-21T06:51:00.125Z,20.00
2018-09-21T06:53:28.704Z,19.34
2018-09-21T06:55:57.397Z,18.18
2018-09-21T06:58:26.247Z,17.48
2018-09-21T07:00:54.939Z,16.19
2018-09-21T07:03:23.703Z,15.72
2018-09-21T07:05:52.433Z,15.77
2018-09-21T07:08:21.368Z,15.59
2018-09-21T07:10:50.297Z,16.03
2018-09-21T07:13:19.094Z,15.67
2018-09-21T07:15:48.004Z,15.67
2018-09-21T07:18:23.470Z,15.74
2018-09-21T07:20:52.129Z,15.45
2018-09-21T07:23:21.043Z,15.14
2018-09-21T07:25:49.768Z,15.44
2018-09-21T07:28:18.401Z,15.30
2018-09-21T07:30:47.297Z,15.60
2018-09-21T07:33:16.065Z,15.57
2018-09-21T07:35:45.088Z,15.67
2018-09-21T07:38:14.149Z,15.55
2018-09-21T07:40:42.937Z,15.60
2018-09-21T07:43:12.175Z,16.08
2018-09-21T07:45:40.902Z,16.05
2018-09-21T07:48:10.201Z,16.13
2018-09-21T07:50:38.943Z,16.26
2018-09-21T07:53:07.806Z,15.74
2018-09-21T07:55:36.612Z,14.96
2018-09-21T07:58:05.509Z,14.43
2018-09-21T08:00:34.291Z,14.66
2018-09-21T08:03:03.123Z,14.84
2018-09-21T08:05:33.940Z,14.58
2018-09-21T08:08:04.357Z,14.92
2018-09-21T08:10:33.123Z,15.56
2018-09-21T08:13:02.369Z,15.94
2018-09-21T08:15:31.671Z,16.73
2018-09-21T08:18:00.624Z,16.88
2018-09-21T08:20:29.440Z,16.94
2018-09-21T08:22:58.267Z,17.02
2018-09-21T08:25:27.190Z,17.28
2018-09-21T08:27:55.925Z,17.47
2018-09-21T08:30:24.672Z,17.86
2018-09-21T08:32:53.400Z,18.46
2018-09-21T08:35:22.026Z,18.47
2018-09-21T08:37:50.764Z,18.51
2018-09-21T08:40:19.372Z,18.50
2018-09-21T08:42:48.679Z,18.60
2018-09-21T08:45:17.265Z,18.34
2018-09-21T08:47:46.005Z,18.08
2018-09-21T08:50:16.054Z,18.30
2018-09-21T08:52:44.940Z,17.93
2018-09-21T08:55:13.629Z,18.55
2018-09-21T08:57:42.540Z,19.00
2018-09-21T09:00:11.298Z,19.17
2018-09-21T09:02:40.194Z,18.47
2018-09-21T09:05:09.121Z,18.80
2018-09-21T09:07:38.549Z,19.17
2018-09-21T09:10:08.563Z,18.92
2018-09-21T09:12:38.614Z,18.86
2018-09-21T09:15:08.383Z,18.37
2018-09-21T09:17:37.298Z,18.21
2018-09-21T09:20:06.199Z,18.25
2018-09-21T09:22:35.058Z,18.07
2018-09-21T09:25:04.143Z,17.89
2018-09-21T09:27:33.026Z,17.47
2018-09-21T09:30:02.077Z,16.79
2018-09-21T09:32:30.771Z,16.72
2018-09-21T09:34:59.505Z,16.55
2018-09-21T09:37:28.778Z,16.99
2018-09-21T09:39:57.661Z,17.66
2018-09-21T09:42:26.594Z,18.07
2018-09-21T09:48:27.276Z,17.92
2018-09-21T09:50:56.061Z,18.34
2018-09-21T09:53:24.818Z,17.93
2018-09-21T09:55:53.546Z,18.12
2018-09-21T09:58:22.225Z,18.59
2018-09-21T10:00:51.944Z,18.73
2018-09-21T10:03:22.125Z,18.92
2018-09-21T10:05:51.185Z,18.92
2018-09-21T10:08:20.083Z,18.64
2018-09-21T10:10:49.152Z,19.08
2018-09-21T10:13:17.822Z,19.20
2018-09-21T10:15:46.800Z,19.02
2018-09-21T10:18:15.743Z,18.50
2018-09-21T10:20:44.765Z,17.94
2018-09-21T10:23:13.745Z,17.56
2018-09-21T10:25:42.380Z,17.15
2018-09-21T10:28:11.165Z,16.95
2018-09-21T10:30:39.849Z,16.56
2018-09-21T10:33:08.492Z,16.93
2018-09-21T10:35:37.259Z,17.26
2018-09-21T10:38:06.487Z,15.19
2018-09-21T10:40:35.424Z,17.87
2018-09-21T10:43:04.241Z,17.39
2018-09-21T10:45:32.953Z,17.21
2018-09-21T10:48:01.705Z,17.52
2018-09-21T10:50:30.740Z,17.60
2018-09-21T10:52:59.475Z,17.25
2018-09-21T10:55:28.357Z,17.34
2018-09-21T10:57:57.144Z,16.68
2018-09-21T11:00:25.838Z,16.49
2018-09-21T11:02:54.822Z,16.26
2018-09-21T11:05:23.792Z,16.17
2018-09-21T11:07:52.772Z,15.86
2018-09-21T11:10:21.531Z,15.82
2018-09-21T11:12:50.275Z,15.91
2018-09-21T11:15:19.020Z,15.86
2018-09-21T11:17:47.834Z,15.85
2018-09-21T11:20:16.596Z,16.08
2018-09-21T11:22:46.096Z,16.21
2018-09-21T11:25:15.121Z,16.09
2018-09-21T11:27:44.434Z,16.09
2018-09-21T11:30:13.419Z,15.76
2018-09-21T11:32:42.582Z,15.66
2018-09-21T11:35:11.425Z,15.52
2018-09-21T11:37:40.519Z,15.38
2018-09-21T11:40:09.300Z,15.28
2018-09-21T11:42:37.893Z,15.39
2018-09-21T11:45:07.384Z,15.53
2018-09-21T11:47:36.399Z,15.44
2018-09-21T11:50:05.098Z,15.51
2018-09-21T11:52:33.861Z,15.64
2018-09-21T11:55:02.533Z,16.12
2018-09-21T11:57:31.349Z,16.27
2018-09-21T12:00:00.470Z,16.84
2018-09-21T12:02:29.655Z,17.11
2018-09-21T12:04:58.478Z,17.15
2018-09-21T12:07:27.103Z,17.17
2018-09-21T12:09:55.897Z,17.33
2018-09-21T12:12:24.641Z,17.45
2018-09-21T12:14:53.434Z,16.93
2018-09-21T12:17:22.597Z,16.51
2018-09-21T12:19:51.586Z,16.57
2018-09-21T12:22:20.977Z,16.71
2018-09-21T12:24:49.917Z,16.38
2018-09-21T12:27:18.738Z,16.53
2018-09-21T12:29:47.691Z,16.45
2018-09-21T12:32:16.677Z,16.49
2018-09-21T12:34:45.568Z,16.50
2018-09-21T12:37:14.406Z,16.20
2018-09-21T12:39:43.327Z,16.27
2018-09-21T12:42:12.258Z,16.29
2018-09-21T12:44:40.959Z,16.25
2018-09-21T12:47:09.797Z,15.90
2018-09-21T12:49:39.239Z,15.85
2018-09-21T12:52:08.809Z,15.87
2018-09-21T12:54:38.127Z,15.76
2018-09-21T12:57:07.025Z,15.73
2018-09-21T12:59:35.894Z,15.60
2018-09-21T13:02:04.862Z,15.57
2018-09-21T13:04:33.670Z,15.60
2018-09-21T13:07:02.568Z,15.48
2018-09-21T13:09:32.564Z,15.39
2018-09-21T13:12:01.433Z,15.39
2018-09-21T13:14:30.070Z,15.35
2018-09-21T13:16:59.091Z,15.23
2018-09-21T13:19:28.001Z,15.20
2018-09-21T13:21:56.663Z,15.09
2018-09-21T13:24:25.728Z,14.98
2018-09-21T13:26:54.488Z,14.94
2018-09-21T13:29:23.201Z,14.94
2018-09-21T13:31:52.050Z,14.97
2018-09-21T13:34:20.835Z,14.71
2018-09-21T13:36:49.788Z,14.70
2018-09-21T13:39:18.480Z,14.67
2018-09-21T13:41:47.248Z,14.46
2018-09-21T13:44:15.856Z,14.51
2018-09-21T13:46:44.759Z,14.60
2018-09-21T13:49:13.923Z,14.60
2018-09-21T13:51:42.767Z,14.55
2018-09-21T13:54:11.522Z,14.55
2018-09-21T13:56:41.016Z,14.62
2018-09-21T13:59:09.732Z,14.45
2018-09-21T14:01:38.661Z,14.49
2018-09-21T14:04:07.634Z,14.51
2018-09-21T14:06:36.325Z,14.58
2018-09-21T14:09:06.281Z,14.61
2018-09-21T14:11:35.000Z,14.56
2018-09-21T14:14:04.009Z,14.55
2018-09-21T14:16:32.680Z,14.43
2018-09-21T14:19:01.396Z,14.41
2018-09-21T14:21:30.176Z,14.36
2018-09-21T14:23:58.844Z,14.29
2018-09-21T14:26:27.578Z,14.13
2018-09-21T14:28:56.520Z,14.22
2018-09-21T14:31:25.275Z,14.09
2018-09-21T14:34:24.549Z,13.97
2018-09-21T14:36:53.181Z,13.97
2018-09-21T14:39:21.970Z,13.96
2018-09-21T14:41:50.696Z,13.80
2018-09-21T14:44:19.581Z,13.79
2018-09-21T14:46:48.402Z,13.73
2018-09-21T14:49:17.504Z,13.67
2018-09-21T14:51:46.371Z,13.54
2018-09-21T14:54:15.453Z,13.42
2018-09-21T14:56:44.139Z,13.47
2018-09-21T14:59:13.221Z,13.41
2018-09-21T15:01:42.005Z,13.35
2018-09-21T15:04:10.700Z,13.18
2018-09-21T15:06:39.548Z,13.17
2018-09-21T15:09:09.935Z,13.09
2018-09-21T15:11:39.237Z,13.12
2018-09-21T15:14:08.287Z,12.86
2018-09-21T15:16:37.292Z,12.88
2018-09-21T15:19:06.139Z,12.92
2018-09-21T15:21:35.420Z,12.79
2018-09-21T15:24:04.345Z,12.82
2018-09-21T15:26:33.079Z,12.73
2018-09-21T15:29:01.997Z,12.71
2018-09-21T15:31:30.894Z,12.72
2018-09-21T15:33:59.548Z,12.71
2018-09-21T15:36:28.290Z,12.63
2018-09-21T15:38:57.358Z,12.45
2018-09-21T15:41:26.178Z,12.31
2018-09-21T15:43:55.050Z,12.34
2018-09-21T15:46:24.137Z,12.23
2018-09-21T15:48:53.216Z,12.18
2018-09-21T15:51:21.987Z,12.16
2018-09-21T15:53:51.016Z,12.13
2018-09-21T15:56:20.003Z,12.11
2018-09-21T15:58:48.788Z,12.00
2018-09-21T16:01:17.731Z,11.98
2018-09-21T16:03:46.460Z,11.87
2018-09-21T16:06:15.266Z,11.87
2018-09-21T16:08:44.369Z,11.82
2018-09-21T16:11:13.409Z,11.78
2018-09-21T16:13:42.399Z,11.80
2018-09-21T16:16:11.147Z,11.85
2018-09-21T16:18:40.004Z,11.78
2018-09-21T16:21:08.936Z,11.79
2018-09-21T16:23:37.621Z,11.76
2018-09-21T16:26:06.276Z,11.83
2018-09-21T16:28:35.012Z,11.76
2018-09-21T16:31:03.748Z,11.69
2018-09-21T16:33:32.506Z,11.71
2018-09-21T16:36:01.255Z,11.71
2018-09-21T16:38:29.956Z,11.68
2018-09-21T16:40:58.823Z,11.65
2018-09-21T16:43:27.661Z,11.69
2018-09-21T16:45:56.348Z,11.63
2018-09-21T16:48:25.231Z,11.61
2018-09-21T16:50:54.137Z,11.64
2018-09-21T16:53:23.376Z,11.68
2018-09-21T16:55:52.070Z,11.74
2018-09-21T16:58:21.196Z,11.70
2018-09-21T17:00:50.200Z,11.66
2018-09-21T17:03:19.257Z,11.64
2018-09-21T17:05:48.201Z,11.62
2018-09-21T17:08:16.913Z,11.63
2018-09-21T17:10:45.960Z,11.61
2018-09-21T17:13:14.936Z,11.59
2018-09-21T17:15:44.467Z,11.57
2018-09-21T17:18:13.211Z,11.55
2018-09-21T17:20:41.980Z,11.54
2018-09-21T17:23:11.161Z,11.58
2018-09-21T17:25:40.215Z,11.58
2018-09-21T17:28:09.228Z,11.60
2018-09-21T17:30:38.532Z,11.61
2018-09-21T17:33:07.561Z,11.59
2018-09-21T17:35:36.711Z,11.61
2018-09-21T17:38:06.181Z,11.65
2018-09-21T17:40:35.336Z,11.67
2018-09-21T17:43:04.239Z,11.62
2018-09-21T17:45:32.937Z,11.58
2018-09-21T17:48:01.870Z,11.63
2018-09-21T17:50:31.058Z,11.64
2018-09-21T17:53:00.268Z,11.65
2018-09-21T17:55:29.188Z,11.69
2018-09-21T17:57:58.098Z,11.73
2018-09-21T18:00:27.100Z,11.71
2018-09-21T18:02:56.037Z,11.75
2018-09-21T18:05:25.036Z,11.77
2018-09-21T18:07:53.992Z,11.79
2018-09-21T18:10:22.988Z,11.79
2018-09-21T18:12:51.901Z,11.84
2018-09-21T18:15:21.382Z,11.92
2018-09-21T18:17:50.508Z,11.98
2018-09-21T18:20:19.600Z,12.04
2018-09-21T18:22:48.665Z,12.05
2018-09-21T18:25:18.325Z,12.09
2018-09-21T18:27:47.016Z,12.14
2018-09-21T18:30:16.601Z,12.19
2018-09-21T18:32:45.631Z,12.23
2018-09-21T18:35:15.716Z,12.28
2018-09-21T18:37:44.901Z,12.30
2018-09-21T18:40:14.643Z,12.38
2018-09-21T18:42:43.311Z,12.43
2018-09-21T18:45:12.051Z,12.47
2018-09-21T18:47:42.062Z,12.52
2018-09-21T18:50:10.908Z,12.58
2018-09-21T18:52:41.643Z,12.63
2018-09-21T18:55:10.666Z,12.68
2018-09-21T18:57:39.593Z,12.70
2018-09-21T19:00:09.197Z,12.75
2018-09-21T19:02:38.026Z,12.82
2018-09-21T19:05:07.038Z,12.82
2018-09-21T19:07:35.873Z,12.89
2018-09-21T19:10:04.848Z,12.93
2018-09-21T19:12:33.634Z,12.95
2018-09-21T19:15:02.482Z,13.02
2018-09-21T19:17:31.220Z,13.04
2018-09-21T19:20:00.451Z,13.07
2018-09-21T19:22:29.512Z,13.15
2018-09-21T19:24:58.469Z,13.22
2018-09-21T19:27:27.285Z,13.31
2018-09-21T19:29:56.426Z,13.39
2018-09-21T19:32:25.326Z,13.43
2018-09-21T19:34:54.562Z,13.50
2018-09-21T19:37:24.039Z,13.54
2018-09-21T19:39:53.311Z,13.61
2018-09-21T19:42:22.286Z,13.68
2018-09-21T19:44:51.292Z,13.74
2018-09-21T19:47:21.015Z,13.78
2018-09-21T19:49:50.337Z,13.81
2018-09-21T19:52:19.919Z,13.88
2018-09-21T19:54:49.007Z,13.95
2018-09-21T19:57:18.191Z,13.98
2018-09-21T19:59:47.423Z,13.96
2018-09-21T20:02:16.202Z,13.99
2018-09-21T20:04:45.002Z,14.05
2018-09-21T20:07:14.016Z,14.02
2018-09-21T20:09:43.114Z,14.08
2018-09-21T20:12:12.609Z,14.11
2018-09-21T20:14:41.906Z,14.14
2018-09-21T20:17:10.668Z,14.16
2018-09-21T20:19:39.691Z,14.17
2018-09-21T20:22:09.735Z,14.16
2018-09-21T20:24:38.861Z,14.14
2018-09-21T20:27:07.928Z,14.20
2018-09-21T20:29:38.375Z,14.23
2018-09-21T20:32:13.865Z,14.26
2018-09-21T20:34:42.806Z,14.26
2018-09-21T20:37:11.819Z,14.27
2018-09-21T20:39:40.802Z,14.30
2018-09-21T20:42:09.849Z,14.32
2018-09-21T20:44:38.918Z,14.34
2018-09-21T20:47:08.037Z,14.38
2018-09-21T20:49:37.059Z,14.37
2018-09-21T20:52:06.475Z,14.36
2018-09-21T20:54:35.501Z,14.37
2018-09-21T20:57:04.383Z,14.36
2018-09-21T20:59:33.444Z,14.35
2018-09-21T21:02:02.436Z,14.35
2018-09-21T21:04:31.434Z,14.37
2018-09-21T21:07:00.289Z,14.36
2018-09-21T21:09:29.202Z,14.38
2018-09-21T21:11:58.200Z,14.36
2018-09-21T21:14:27.068Z,14.39
2018-09-21T21:16:55.985Z,14.38
2018-09-21T21:19:24.918Z,14.40
2018-09-21T21:21:56.349Z,14.41
2018-09-21T21:24:26.513Z,14.42
2018-09-21T21:26:55.692Z,14.42
2018-09-21T21:32:56.819Z,14.41
2018-09-21T21:35:25.479Z,14.43
2018-09-21T21:37:54.555Z,14.46
2018-09-21T21:40:24.512Z,14.45
2018-09-21T21:42:53.292Z,14.45
2018-09-21T21:45:22.221Z,14.46
2018-09-21T21:47:51.918Z,14.44
2018-09-21T21:50:20.547Z,14.30
2018-09-21T21:52:49.268Z,14.45
2018-09-21T21:55:17.975Z,14.47
2018-09-21T21:57:46.744Z,14.50
2018-09-21T22:00:15.875Z,14.49
2018-09-21T22:02:44.751Z,14.54
2018-09-21T22:05:13.615Z,14.52
2018-09-21T22:07:42.263Z,14.55
2018-09-21T22:10:11.018Z,14.56
2018-09-21T22:12:44.932Z,14.53
2018-09-21T22:15:19.076Z,14.54
2018-09-21T22:17:49.066Z,14.55
2018-09-21T22:20:18.193Z,14.59
2018-09-21T22:22:47.082Z,14.63
2018-09-21T22:25:16.081Z,14.64
2018-09-21T22:27:44.932Z,14.62
2018-09-21T22:30:14.170Z,14.65
2018-09-21T22:32:43.024Z,14.67
2018-09-21T22:35:11.718Z,14.67
2018-09-21T22:37:40.565Z,14.67
2018-09-21T22:40:09.530Z,14.67
2018-09-21T22:42:38.196Z,14.67
2018-09-21T22:45:07.173Z,13.94
2018-09-21T22:47:35.750Z,14.71
2018-09-21T22:50:04.668Z,14.68
2018-09-21T22:52:33.386Z,14.72
2018-09-21T22:55:02.136Z,14.73
2018-09-21T22:57:31.032Z,14.74
2018-09-21T22:59:59.838Z,14.74
2018-09-21T23:02:28.792Z,14.76
2018-09-21T23:04:57.939Z,14.74
2018-09-21T23:07:27.013Z,14.70
2018-09-21T23:09:55.698Z,14.70
2018-09-21T23:12:24.588Z,14.71
2018-09-21T23:14:53.237Z,14.71
2018-09-21T23:17:21.984Z,14.73
2018-09-21T23:19:50.585Z,14.74
2018-09-21T23:22:19.262Z,14.76
2018-09-21T23:24:48.761Z,14.75
2018-09-21T23:27:17.616Z,14.78
2018-09-21T23:29:46.327Z,14.74
2018-09-21T23:32:15.108Z,14.79
2018-09-21T23:34:43.863Z,14.81
2018-09-21T23:37:12.622Z,14.80
2018-09-21T23:39:41.422Z,14.74
2018-09-21T23:42:10.313Z,14.77
2018-09-21T23:44:38.962Z,14.77
2018-09-21T23:47:07.845Z,14.73
2018-09-21T23:49:36.610Z,14.79
2018-09-21T23:52:05.697Z,14.78
2018-09-21T23:54:34.887Z,14.79
2018-09-21T23:57:03.572Z,14.81
2018-09-21T23:59:32.346Z,14.78
